createdAt,value
2023-12-30T00:01:01.501Z,99221.06
2023-12-30T00:03:30.533Z,99218.69
2023-12-30T00:05:58.322Z,99222.27
2023-12-30T00:08:25.848Z,99220.77
2023-12-30T00:10:54.759Z,99214.16
2023-12-30T00:13:22.880Z,99212.60
2023-12-30T00:15:50.498Z,99211.23
2023-12-30T00:18:19.552Z,99212.68
2023-12-30T00:20:47.441Z,99212.75
2023-12-30T00:23:15.207Z,99214.13
2023-12-30T00:25:44.305Z,99206.67
2023-12-30T00:28:12.114Z,99209.09
2023-12-30T00:30:39.977Z,99203.63
2023-12-30T00:33:09.021Z,99202.42
2023-12-30T00:35:36.988Z,99198.44
2023-12-30T00:38:04.745Z,99193.55
2023-12-30T00:40:33.641Z,99197.09
2023-12-30T00:43:01.633Z,99192.02
2023-12-30T00:45:32.127Z,99198.35
2023-12-30T00:47:59.931Z,99198.00
2023-12-30T00:50:27.660Z,99206.11
2023-12-30T00:52:56.660Z,99201.36
2023-12-30T00:55:24.324Z,99198.93
2023-12-30T00:57:52.012Z,99193.34
2023-12-30T01:00:22.606Z,99192.73
2023-12-30T01:02:50.273Z,99195.01
2023-12-30T01:05:18.061Z,99191.79
2023-12-30T01:07:47.116Z,99194.09
2023-12-30T01:10:15.131Z,99196.67
2023-12-30T01:12:42.865Z,99197.21
2023-12-30T01:15:11.638Z,99196.81
2023-12-30T01:17:39.399Z,99200.70
2023-12-30T01:20:09.307Z,99199.77
2023-12-30T01:22:39.038Z,99198.52
2023-12-30T01:25:06.739Z,99198.73
2023-12-30T01:27:34.451Z,99197.96
2023-12-30T01:30:03.476Z,99193.27
2023-12-30T01:32:31.432Z,99195.49
2023-12-30T01:34:59.019Z,99191.15
2023-12-30T01:37:28.110Z,99195.79
2023-12-30T01:39:55.934Z,99196.61
2023-12-30T01:42:24.004Z,99198.44
2023-12-30T01:44:53.122Z,99197.85
2023-12-30T01:47:21.094Z,99196.77
2023-12-30T01:49:48.658Z,99193.66
2023-12-30T01:52:17.764Z,99187.58
2023-12-30T01:54:45.690Z,99183.83
2023-12-30T01:57:13.241Z,99185.02
2023-12-30T01:59:42.028Z,99180.83
2023-12-30T02:02:09.994Z,99180.94
2023-12-30T02:04:37.946Z,99176.29
2023-12-30T02:07:07.339Z,99180.75
2023-12-30T02:09:35.053Z,99176.36
2023-12-30T02:12:02.897Z,99174.91
2023-12-30T02:14:31.899Z,99183.50
2023-12-30T02:16:59.649Z,99187.57
2023-12-30T02:19:27.696Z,99182.10
2023-12-30T02:21:56.662Z,99183.96
2023-12-30T02:24:24.378Z,99178.30
2023-12-30T02:26:52.042Z,99183.47
2023-12-30T02:29:20.824Z,99183.84
2023-12-30T02:31:48.799Z,99184.27
2023-12-30T02:34:16.746Z,99186.92
2023-12-30T02:36:45.664Z,99186.23
2023-12-30T02:39:13.517Z,99182.05
2023-12-30T02:41:41.392Z,99178.77
2023-12-30T02:44:10.268Z,99174.01
2023-12-30T02:46:38.242Z,99165.44
2023-12-30T02:49:06.133Z,99162.25
2023-12-30T02:51:35.109Z,99166.23
2023-12-30T02:54:02.758Z,99165.41
2023-12-30T02:56:30.420Z,99149.82
2023-12-30T02:58:59.313Z,99138.24
2023-12-30T03:01:27.511Z,99132.31
2023-12-30T03:03:57.651Z,99130.20
2023-12-30T03:06:25.469Z,99133.52
2023-12-30T03:08:53.068Z,99143.55
2023-12-30T03:11:22.019Z,99146.54
2023-12-30T03:13:49.586Z,99153.91
2023-12-30T03:16:17.174Z,99145.77
2023-12-30T03:18:46.214Z,99137.96
2023-12-30T03:21:14.211Z,99132.88
2023-12-30T03:23:41.852Z,99131.23
2023-12-30T03:26:10.762Z,99136.98
2023-12-30T03:28:38.784Z,99146.91
2023-12-30T03:31:06.637Z,99151.02
2023-12-30T03:33:35.608Z,99155.48
2023-12-30T03:36:03.441Z,99160.05
2023-12-30T03:38:31.007Z,99153.45
2023-12-30T03:40:59.888Z,99150.55
2023-12-30T03:43:27.787Z,99154.19
2023-12-30T03:45:55.369Z,99156.82
2023-12-30T03:48:24.323Z,99154.06
2023-12-30T03:50:52.079Z,99149.52
2023-12-30T03:53:19.781Z,99145.21
2023-12-30T03:55:48.839Z,99136.77
2023-12-30T03:58:16.569Z,99134.19
2023-12-30T04:00:44.409Z,99131.62
2023-12-30T04:03:13.873Z,99138.29
2023-12-30T04:05:41.829Z,99140.47
2023-12-30T04:08:11.967Z,99144.73
2023-12-30T04:10:39.775Z,99152.52
2023-12-30T04:13:07.860Z,99151.84
2023-12-30T04:15:36.782Z,99152.02
2023-12-30T04:18:04.796Z,99152.54
2023-12-30T04:20:32.705Z,99153.14
2023-12-30T04:23:02.716Z,99152.45
2023-12-30T04:25:30.525Z,99150.59
2023-12-30T04:28:00.595Z,99152.30
2023-12-30T04:30:28.652Z,99155.69
2023-12-30T04:32:56.528Z,99157.29
2023-12-30T04:35:25.356Z,99155.52
2023-12-30T04:37:53.213Z,99146.59
2023-12-30T04:40:21.037Z,99145.24
2023-12-30T04:42:50.100Z,99141.96
2023-12-30T04:45:17.836Z,99143.66
2023-12-30T04:47:45.623Z,99159.08
2023-12-30T04:50:15.217Z,99163.67
2023-12-30T04:52:43.086Z,99164.39
2023-12-30T04:55:13.018Z,99167.54
2023-12-30T04:57:40.744Z,99169.30
2023-12-30T05:00:08.643Z,99169.33
2023-12-30T05:02:37.637Z,99169.42
2023-12-30T05:05:05.293Z,99174.88
2023-12-30T05:07:33.244Z,99174.86
2023-12-30T05:10:02.481Z,99177.57
2023-12-30T05:12:30.636Z,99173.66
2023-12-30T05:14:58.402Z,99173.96
2023-12-30T05:17:27.290Z,99172.41
2023-12-30T05:19:55.685Z,99171.64
2023-12-30T05:22:25.788Z,99157.57
2023-12-30T05:24:53.673Z,99158.21
2023-12-30T05:27:21.508Z,99155.13
2023-12-30T05:29:50.598Z,99153.73
2023-12-30T05:32:18.452Z,99156.42
2023-12-30T05:34:46.691Z,99156.33
2023-12-30T05:37:15.682Z,99160.30
2023-12-30T05:39:43.595Z,99160.42
2023-12-30T05:42:11.449Z,99161.86
2023-12-30T05:44:40.477Z,99164.23
2023-12-30T05:47:08.219Z,99169.19
2023-12-30T05:49:36.307Z,99174.90
2023-12-30T05:52:05.393Z,99171.52
2023-12-30T05:54:33.573Z,99169.17
2023-12-30T05:57:01.433Z,99168.85
2023-12-30T05:59:30.561Z,99174.08
2023-12-30T06:01:58.313Z,99180.67
2023-12-30T06:04:26.252Z,99181.67
2023-12-30T06:06:55.458Z,99181.05
2023-12-30T06:09:23.212Z,99181.02
2023-12-30T06:11:50.984Z,99182.27
2023-12-30T06:14:20.260Z,99185.80
2023-12-30T06:16:48.132Z,99187.84
2023-12-30T06:19:18.000Z,99189.75
2023-12-30T06:21:47.441Z,99193.23
2023-12-30T06:24:15.121Z,99193.87
2023-12-30T06:26:43.067Z,99193.81
2023-12-30T06:29:12.314Z,99201.98
2023-12-30T06:31:40.294Z,99205.83
2023-12-30T06:34:08.319Z,99207.21
2023-12-30T06:36:39.253Z,99213.55
2023-12-30T06:39:08.248Z,99218.14
2023-12-30T06:41:37.849Z,99218.70
2023-12-30T06:44:05.723Z,99223.61
2023-12-30T06:46:33.645Z,99231.88
2023-12-30T06:49:02.785Z,99232.16
2023-12-30T06:51:30.921Z,99241.20
2023-12-30T06:53:58.728Z,99241.34
2023-12-30T06:56:27.984Z,99238.51
2023-12-30T06:58:55.791Z,99241.11
2023-12-30T07:01:26.017Z,99246.20
2023-12-30T07:03:54.125Z,99249.64
2023-12-30T07:06:21.940Z,99252.52
2023-12-30T07:08:50.931Z,99250.48
2023-12-30T07:11:18.804Z,99249.52
2023-12-30T07:13:46.678Z,99257.89
2023-12-30T07:16:15.703Z,99260.17
2023-12-30T07:18:43.599Z,99264.38
2023-12-30T07:21:11.489Z,99265.58
2023-12-30T07:23:40.487Z,99268.52
2023-12-30T07:26:08.349Z,99263.53
2023-12-30T07:28:36.321Z,99271.88
2023-12-30T07:31:05.513Z,99278.13
2023-12-30T07:33:33.649Z,99281.98
2023-12-30T07:36:01.756Z,99284.90
2023-12-30T07:38:30.854Z,99282.85
2023-12-30T07:40:58.621Z,99287.23
2023-12-30T07:43:26.394Z,99283.23
2023-12-30T07:45:55.716Z,99280.98
2023-12-30T07:48:23.678Z,99281.60
2023-12-30T07:50:51.520Z,99279.52
2023-12-30T07:53:20.706Z,99281.87
2023-12-30T07:55:48.779Z,99281.51
2023-12-30T07:58:16.576Z,99285.00
2023-12-30T08:00:45.667Z,99284.98
2023-12-30T08:03:13.501Z,99288.61
2023-12-30T08:05:41.281Z,99289.75
2023-12-30T08:08:10.361Z,99292.63
2023-12-30T08:10:38.212Z,99300.27
2023-12-30T08:13:06.323Z,99305.08
2023-12-30T08:15:35.885Z,99309.73
2023-12-30T08:18:03.622Z,99315.39
2023-12-30T08:20:31.555Z,99324.52
2023-12-30T08:23:01.018Z,99326.05
2023-12-30T08:25:29.073Z,99329.48
2023-12-30T08:27:59.152Z,99327.28
2023-12-30T08:30:27.030Z,99329.16
2023-12-30T08:32:54.812Z,99342.14
2023-12-30T08:35:24.032Z,99381.65
2023-12-30T08:37:51.689Z,99421.08
2023-12-30T08:40:19.407Z,99425.14
2023-12-30T08:42:48.874Z,99420.33
2023-12-30T08:45:16.529Z,99422.09
2023-12-30T08:47:46.600Z,99428.04
2023-12-30T08:50:14.530Z,99426.16
2023-12-30T08:52:42.378Z,99427.10
2023-12-30T08:55:11.619Z,99431.49
2023-12-30T08:57:39.487Z,99431.41
2023-12-30T09:00:07.474Z,99435.52
2023-12-30T09:02:36.573Z,99435.21
2023-12-30T09:05:04.165Z,99442.56
2023-12-30T09:07:32.198Z,99444.80
2023-12-30T09:10:01.618Z,99445.92
2023-12-30T09:12:29.514Z,99452.77
2023-12-30T09:14:59.649Z,99457.19
2023-12-30T09:17:27.563Z,99463.58
2023-12-30T09:19:55.332Z,99472.77
2023-12-30T09:22:24.501Z,99477.73
2023-12-30T09:24:52.331Z,99479.95
2023-12-30T09:27:19.986Z,99478.02
2023-12-30T09:29:48.962Z,99482.21
2023-12-30T09:32:16.641Z,99484.60
2023-12-30T09:34:44.894Z,99478.66
2023-12-30T09:37:14.474Z,99476.01
2023-12-30T09:39:42.180Z,99484.52
2023-12-30T09:42:09.942Z,99492.30
2023-12-30T09:44:38.843Z,99495.38
2023-12-30T09:47:06.989Z,99500.21
2023-12-30T09:49:34.921Z,99491.30
2023-12-30T09:52:04.131Z,99499.51
2023-12-30T09:54:42.216Z,99489.46
2023-12-30T09:57:15.892Z,99489.52
2023-12-30T09:59:43.651Z,99488.33
2023-12-30T10:02:11.562Z,99487.70
2023-12-30T10:04:40.971Z,99493.48
2023-12-30T10:07:08.847Z,99489.38
2023-12-30T10:09:36.869Z,99488.05
2023-12-30T10:12:05.945Z,99493.55
2023-12-30T10:14:33.931Z,99500.34
2023-12-30T10:17:01.928Z,99499.10
2023-12-30T10:19:31.009Z,99492.79
2023-12-30T10:21:58.770Z,99491.10
2023-12-30T10:24:26.616Z,99484.95
2023-12-30T10:26:55.687Z,99481.92
2023-12-30T10:29:23.935Z,99480.77
2023-12-30T10:31:51.791Z,99481.22
2023-12-30T10:34:21.098Z,99484.92
2023-12-30T10:36:48.973Z,99485.30
2023-12-30T10:39:19.123Z,99484.71
2023-12-30T10:41:47.138Z,99489.27
2023-12-30T10:44:14.965Z,99493.22
2023-12-30T10:46:44.306Z,99495.54
2023-12-30T10:49:12.459Z,99494.62
2023-12-30T10:51:42.562Z,99490.20
2023-12-30T10:54:10.429Z,99493.67
2023-12-30T10:56:38.286Z,99486.93
2023-12-30T10:59:07.298Z,99489.55
2023-12-30T11:01:35.300Z,99493.39
2023-12-30T11:04:03.298Z,99498.27
2023-12-30T11:06:32.497Z,99503.10
2023-12-30T11:09:00.397Z,99504.73
2023-12-30T11:11:28.355Z,99506.64
2023-12-30T11:13:57.488Z,99504.09
2023-12-30T11:16:25.397Z,99500.73
2023-12-30T11:18:53.191Z,99502.19
2023-12-30T11:21:22.184Z,99490.85
2023-12-30T11:23:49.826Z,99494.80
2023-12-30T11:26:17.880Z,99493.34
2023-12-30T11:28:46.952Z,99494.15
2023-12-30T11:31:14.994Z,99495.80
2023-12-30T11:33:43.173Z,99493.17
2023-12-30T11:36:12.205Z,99491.29
2023-12-30T11:38:40.189Z,99488.69
2023-12-30T11:41:08.066Z,99496.02
2023-12-30T11:43:37.421Z,99496.05
2023-12-30T11:46:05.288Z,99492.27
2023-12-30T11:48:33.641Z,99489.66
2023-12-30T11:51:02.601Z,99491.64
2023-12-30T11:53:30.474Z,99489.67
2023-12-30T11:55:58.329Z,99484.40
2023-12-30T11:58:27.478Z,99479.05
2023-12-30T12:00:55.231Z,99481.16
2023-12-30T12:03:23.055Z,99479.71
2023-12-30T12:05:52.583Z,99489.82
2023-12-30T12:08:20.324Z,99493.19
2023-12-30T12:10:50.447Z,99499.42
2023-12-30T12:13:18.613Z,99502.36
2023-12-30T12:15:46.796Z,99495.70
2023-12-30T12:18:16.342Z,99494.09
2023-12-30T12:20:44.257Z,99486.54
2023-12-30T12:23:12.048Z,99488.41
2023-12-30T12:25:41.221Z,99481.10
2023-12-30T12:28:09.693Z,99482.92
2023-12-30T12:30:39.857Z,99479.50
2023-12-30T12:33:07.772Z,99482.29
2023-12-30T12:35:35.446Z,99483.28
2023-12-30T12:38:04.533Z,99487.70
2023-12-30T12:40:32.235Z,99488.50
2023-12-30T12:43:00.796Z,99489.08
2023-12-30T12:45:31.820Z,99483.81
2023-12-30T12:47:59.640Z,99483.96
2023-12-30T12:50:28.675Z,99480.71
2023-12-30T12:52:56.430Z,99484.41
2023-12-30T12:55:24.369Z,99487.92
2023-12-30T12:57:53.628Z,99487.38
2023-12-30T13:00:21.291Z,99486.50
2023-12-30T13:02:49.207Z,99484.23
2023-12-30T13:05:18.396Z,99480.47
2023-12-30T13:07:46.495Z,99480.37
2023-12-30T13:10:14.481Z,99487.92
2023-12-30T13:12:43.573Z,99497.54
2023-12-30T13:15:11.350Z,99494.03
2023-12-30T13:17:39.261Z,99495.30
2023-12-30T13:20:08.418Z,99497.56
2023-12-30T13:22:36.384Z,99502.05
2023-12-30T13:25:04.403Z,99498.45
2023-12-30T13:27:33.630Z,99491.41
2023-12-30T13:30:01.488Z,99487.10
2023-12-30T13:32:29.456Z,99487.05
2023-12-30T13:34:58.718Z,99483.95
2023-12-30T13:37:26.743Z,99487.62
2023-12-30T13:39:54.912Z,99485.77
2023-12-30T13:42:24.138Z,99493.10
2023-12-30T13:44:51.959Z,99498.12
2023-12-30T13:47:19.935Z,99495.55
2023-12-30T13:49:49.121Z,99491.26
2023-12-30T13:52:17.247Z,99491.44
2023-12-30T13:54:45.068Z,99493.58
2023-12-30T13:57:15.113Z,99492.40
2023-12-30T13:59:42.937Z,99492.95
2023-12-30T14:02:13.105Z,99495.46
2023-12-30T14:04:41.311Z,99499.49
2023-12-30T14:07:09.370Z,99505.73
2023-12-30T14:09:38.713Z,99507.99
2023-12-30T14:12:07.110Z,99512.79
2023-12-30T14:14:37.232Z,99511.24
2023-12-30T14:17:05.093Z,99515.88
2023-12-30T14:19:33.234Z,99512.57
2023-12-30T14:22:02.422Z,99519.80
2023-12-30T14:24:30.128Z,99512.05
2023-12-30T14:26:58.156Z,99511.79
2023-12-30T14:29:27.080Z,99514.62
2023-12-30T14:31:54.957Z,99515.70
2023-12-30T14:37:05.288Z,99519.64
2023-12-30T14:39:32.877Z,99522.34
2023-12-30T14:42:00.752Z,99524.05
2023-12-30T14:44:29.851Z,99526.32
2023-12-30T14:46:57.702Z,99523.54
2023-12-30T14:49:25.609Z,99523.13
2023-12-30T14:51:54.902Z,99519.14
2023-12-30T14:54:22.724Z,99521.77
2023-12-30T14:56:50.511Z,99523.03
2023-12-30T14:59:19.949Z,99524.35
2023-12-30T15:01:47.805Z,99524.77
2023-12-30T15:04:18.217Z,99526.09
2023-12-30T15:06:46.074Z,99524.64
2023-12-30T15:09:13.822Z,99532.56
2023-12-30T15:11:43.236Z,99537.77
2023-12-30T15:14:11.305Z,99544.59
2023-12-30T15:16:41.610Z,99544.78
2023-12-30T15:19:09.824Z,99549.17
2023-12-30T15:21:40.024Z,99547.63
2023-12-30T15:24:08.093Z,99551.14
2023-12-30T15:26:35.952Z,99551.66
2023-12-30T15:29:05.031Z,99548.80
2023-12-30T15:31:33.044Z,99546.59
2023-12-30T15:34:01.001Z,99548.20
2023-12-30T15:36:30.473Z,99549.88
2023-12-30T15:38:58.250Z,99552.76
2023-12-30T15:41:28.367Z,99554.37
2023-12-30T15:43:56.262Z,99555.32
2023-12-30T15:46:24.435Z,99562.45
2023-12-30T15:48:53.759Z,99562.66
2023-12-30T15:51:21.553Z,99566.98
2023-12-30T15:53:49.131Z,99572.29
2023-12-30T15:56:18.220Z,99575.69
2023-12-30T15:58:46.523Z,99578.03
2023-12-30T16:01:14.342Z,99577.31
2023-12-30T16:03:43.384Z,99576.79
2023-12-30T16:06:11.310Z,99576.83
2023-12-30T16:08:39.186Z,99575.23
2023-12-30T16:11:08.276Z,99571.35
2023-12-30T16:13:35.953Z,99568.36
2023-12-30T16:16:03.722Z,99574.41
2023-12-30T16:18:33.155Z,99571.69
2023-12-30T16:21:00.975Z,99574.95
2023-12-30T16:23:30.902Z,99575.80
2023-12-30T16:25:58.748Z,99572.86
2023-12-30T16:28:26.486Z,99575.46
2023-12-30T16:30:55.768Z,99582.67
2023-12-30T16:33:23.926Z,99581.00
2023-12-30T16:35:51.738Z,99585.36
2023-12-30T16:38:20.739Z,99585.93
2023-12-30T16:40:48.774Z,99592.94
2023-12-30T16:43:16.586Z,99593.21
2023-12-30T16:45:46.353Z,99595.02
2023-12-30T16:48:15.041Z,99596.11
2023-12-30T16:50:44.074Z,99596.75
2023-12-30T16:53:11.939Z,99602.22
2023-12-30T16:55:39.564Z,99603.03
2023-12-30T16:58:08.701Z,99605.36
2023-12-30T17:00:36.498Z,99608.10
2023-12-30T17:03:04.873Z,99612.04
2023-12-30T17:05:34.027Z,99606.96
2023-12-30T17:08:01.778Z,99610.75
2023-12-30T17:10:29.727Z,99619.77
2023-12-30T17:12:58.906Z,99624.59
2023-12-30T17:15:26.813Z,99625.09
2023-12-30T17:17:54.410Z,99625.48
2023-12-30T17:20:23.483Z,99631.71
2023-12-30T17:22:51.015Z,99632.01
2023-12-30T17:25:18.978Z,99631.75
2023-12-30T17:27:48.513Z,99629.98
2023-12-30T17:30:16.416Z,99628.62
2023-12-30T17:32:46.448Z,99627.52
2023-12-30T17:35:14.256Z,99628.37
2023-12-30T17:37:41.994Z,99630.52
2023-12-30T17:40:11.146Z,99634.34
2023-12-30T17:42:39.082Z,99634.49
2023-12-30T17:45:06.861Z,99638.65
2023-12-30T17:47:35.844Z,99637.67
2023-12-30T17:50:03.903Z,99638.96
2023-12-30T17:52:31.615Z,99637.08
2023-12-30T17:55:01.355Z,99632.55
2023-12-30T17:57:29.227Z,99627.04
2023-12-30T17:59:59.156Z,99623.23
2023-12-30T18:02:26.990Z,99619.46
2023-12-30T18:04:54.740Z,99637.27
2023-12-30T18:07:23.917Z,99644.35
2023-12-30T18:09:52.044Z,99645.77
2023-12-30T18:12:19.705Z,99651.05
2023-12-30T18:14:48.715Z,99660.54
2023-12-30T18:17:16.579Z,99666.45
2023-12-30T18:19:44.278Z,99661.30
2023-12-30T18:22:13.472Z,99658.41
2023-12-30T18:24:41.513Z,99661.25
2023-12-30T18:27:11.821Z,99662.15
2023-12-30T18:29:39.637Z,99662.05
2023-12-30T18:32:07.791Z,99664.05
2023-12-30T18:34:36.970Z,99662.02
2023-12-30T18:37:04.847Z,99662.86
2023-12-30T18:39:32.679Z,99664.50
2023-12-30T18:42:01.662Z,99666.90
2023-12-30T18:44:29.356Z,99670.38
2023-12-30T18:46:57.130Z,99674.33
2023-12-30T18:49:26.351Z,99679.00
2023-12-30T18:51:54.196Z,99683.77
2023-12-30T18:54:21.818Z,99683.06
2023-12-30T18:56:50.920Z,99686.27
2023-12-30T18:59:18.788Z,99689.23
2023-12-30T19:01:46.751Z,99684.30
2023-12-30T19:04:16.038Z,99692.16
2023-12-30T19:06:44.133Z,99689.73
2023-12-30T19:09:14.462Z,99690.44
2023-12-30T19:11:42.544Z,99684.67
2023-12-30T19:14:10.401Z,99691.78
2023-12-30T19:16:39.390Z,99694.08
2023-12-30T19:19:07.275Z,99692.33
2023-12-30T19:21:34.922Z,99692.35
2023-12-30T19:24:03.905Z,99693.80
2023-12-30T19:26:31.700Z,99692.13
2023-12-30T19:28:59.544Z,99695.40
2023-12-30T19:31:28.648Z,99699.70
2023-12-30T19:33:56.936Z,99696.83
2023-12-30T19:36:27.424Z,99692.92
2023-12-30T19:38:55.728Z,99693.99
2023-12-30T19:41:25.742Z,99696.71
2023-12-30T19:43:53.703Z,99701.08
2023-12-30T19:46:21.487Z,99699.92
2023-12-30T19:48:50.567Z,99699.61
2023-12-30T19:51:18.436Z,99700.83
2023-12-30T19:53:45.973Z,99707.45
2023-12-30T19:56:15.780Z,99712.40
2023-12-30T19:58:43.731Z,99709.08
2023-12-30T20:01:11.577Z,99707.34
2023-12-30T20:03:40.724Z,99708.95
2023-12-30T20:06:08.739Z,99706.08
2023-12-30T20:08:36.571Z,99708.00
2023-12-30T20:11:05.877Z,99708.26
2023-12-30T20:13:33.652Z,99707.95
2023-12-30T20:16:01.963Z,99700.27
2023-12-30T20:18:30.930Z,99704.10
2023-12-30T20:20:58.842Z,99702.95
2023-12-30T20:23:26.611Z,99702.77
2023-12-30T20:25:55.826Z,99701.22
2023-12-30T20:28:23.620Z,99698.94
2023-12-30T20:30:51.485Z,99696.42
2023-12-30T20:33:20.692Z,99697.28
2023-12-30T20:35:48.496Z,99704.50
2023-12-30T20:38:16.466Z,99710.30
2023-12-30T20:40:47.066Z,99717.10
2023-12-30T20:43:15.176Z,99719.39
2023-12-30T20:45:44.466Z,99719.52
2023-12-30T20:48:12.435Z,99713.94
2023-12-30T20:50:42.568Z,99711.73
2023-12-30T20:53:10.529Z,99710.02
2023-12-30T20:55:40.896Z,99712.94
2023-12-30T20:58:08.641Z,99714.36
2023-12-30T21:00:36.824Z,99719.30
2023-12-30T21:03:05.863Z,99719.66
2023-12-30T21:05:33.696Z,99722.02
2023-12-30T21:08:01.498Z,99718.75
2023-12-30T21:10:30.577Z,99716.73
2023-12-30T21:12:58.401Z,99721.60
2023-12-30T21:15:26.261Z,99724.25
2023-12-30T21:17:55.385Z,99729.20
2023-12-30T21:20:23.295Z,99729.71
2023-12-30T21:22:51.012Z,99722.88
2023-12-30T21:25:26.600Z,99722.92
2023-12-30T21:27:56.823Z,99721.97
2023-12-30T21:30:24.481Z,99721.19
2023-12-30T21:32:52.289Z,99724.55
2023-12-30T21:35:21.347Z,99727.86
2023-12-30T21:37:49.152Z,99728.77
2023-12-30T21:40:17.111Z,99725.68
2023-12-30T21:42:46.054Z,99723.50
2023-12-30T21:45:13.730Z,99724.55
2023-12-30T21:47:41.442Z,99725.59
2023-12-30T21:50:11.042Z,99727.20
2023-12-30T21:52:39.679Z,99722.66
2023-12-30T21:55:09.001Z,99724.09
2023-12-30T21:57:36.856Z,99723.69
2023-12-30T22:00:04.620Z,99729.17
2023-12-30T22:02:33.614Z,99730.59
2023-12-30T22:05:01.676Z,99731.18
2023-12-30T22:07:29.461Z,99726.30
2023-12-30T22:09:58.719Z,99716.75
2023-12-30T22:12:26.407Z,99723.67
2023-12-30T22:14:54.161Z,99722.34
2023-12-30T22:17:23.477Z,99731.11
2023-12-30T22:19:51.480Z,99730.41
2023-12-30T22:22:19.542Z,99722.63
2023-12-30T22:24:48.613Z,99723.73
2023-12-30T22:27:16.453Z,99723.48
2023-12-30T22:29:44.133Z,99726.34
2023-12-30T22:32:13.404Z,99719.77
2023-12-30T22:34:41.115Z,99720.82
2023-12-30T22:37:09.082Z,99722.14
2023-12-30T22:39:37.939Z,99720.25
2023-12-30T22:42:05.729Z,99717.52
2023-12-30T22:44:36.079Z,99720.40
2023-12-30T22:47:06.792Z,99721.32
2023-12-30T22:49:34.790Z,99725.22
2023-12-30T22:52:02.528Z,99723.02
2023-12-30T22:54:31.591Z,99719.14
2023-12-30T22:56:59.463Z,99717.35
2023-12-30T22:59:27.238Z,99714.44
2023-12-30T23:01:56.283Z,99713.54
2023-12-30T23:04:24.141Z,99714.66
2023-12-30T23:06:51.954Z,99719.18
2023-12-30T23:09:21.075Z,99718.21
2023-12-30T23:11:48.909Z,99716.18
2023-12-30T23:14:17.067Z,99713.70
2023-12-30T23:16:46.144Z,99705.52
2023-12-30T23:19:14.085Z,99707.74
2023-12-30T23:21:41.906Z,99718.02
2023-12-30T23:24:10.992Z,99722.64
2023-12-30T23:26:38.663Z,99715.63
2023-12-30T23:29:06.515Z,99711.94
2023-12-30T23:31:35.610Z,99710.00
2023-12-30T23:34:03.634Z,99710.44
2023-12-30T23:36:31.548Z,99708.85
2023-12-30T23:39:00.752Z,99711.79
2023-12-30T23:41:28.889Z,99713.73
2023-12-30T23:43:56.485Z,99711.73
2023-12-30T23:46:25.754Z,99709.23
2023-12-30T23:48:53.722Z,99709.97
2023-12-30T23:51:21.518Z,99709.36
2023-12-30T23:53:50.292Z,99707.13
2023-12-30T23:56:18.373Z,99703.17
2023-12-30T23:58:46.347Z,99709.52
